Latest Weather Observations for Burnie Port

IDT60801

Issued at 10:21 pm EST Monday 6 July 2020 (issued every 10 minutes, with the page automatically refreshed every 10 minutes)

About weather observations | Map of weather stations | Latest weather observations for TAS | Other Formats
Station Details ID: 091344 Name: BURNIE NTC AWS Lat: -41.05 Lon: 145.91 Height: 0.0 m
Data from the previous 72 hours. | See also: Recent months for locations in Tasmania
Date/Time
EST
Temp
°C
App
Temp
°C
Dew
Point
°C
Rel
Hum
%
Delta-T
°C
Wind Press
QNH
hPa
Press
MSL
hPa
Rain since
9am
mm
Dir  Spd
km/h
Gust
km/h
Spd
kts
Gust
kts
06/10:00pm 10.2 - - - - WSW 4 11 2 6 1028.2 1028.2 -
06/09:30pm 10.2 - - - - WNW 6 11 3 6 1027.9 1027.9 -
06/09:00pm 10.7 - - - - WNW 7 17 4 9 1027.8 1027.8 -
06/08:30pm 10.9 - - - - WNW 7 15 4 8 1027.7 1027.7 -
06/08:00pm 11.0 - - - - WNW 4 9 2 5 1027.3 1027.3 -
06/07:30pm 11.4 - - - - NW 4 9 2 5 1027.1 1027.1 -
06/07:00pm 11.5 - - - - NW 7 11 4 6 1026.7 1026.7 -
06/06:30pm 11.5 - - - - WNW 7 13 4 7 1026.3 1026.3 -
06/06:00pm 11.7 - - - - NW 9 15 5 8 1026.2 1026.2 -
06/05:30pm 11.8 - - - - WNW 6 13 3 7 1026.3 1026.3 -
06/05:00pm 12.3 - - - - WNW 9 22 5 12 1026.2 1026.2 -
06/04:30pm 12.7 - - - - CALM 0 6 0 3 1026.1 1026.1 -
06/04:00pm 13.2 - - - - WSW 7 17 4 9 1026.0 1026.0 -
06/03:30pm 13.1 - - - - SW 17 28 9 15 1025.8 1025.8 -
06/03:00pm 13.3 - - - - SW 15 24 8 13 1025.8 1025.8 -
06/02:30pm 13.7 - - - - SW 22 37 12 20 1025.5 1025.5 -
06/02:00pm 13.8 - - - - SW 15 32 8 17 1025.4 1025.4 -
06/01:30pm 13.3 - - - - SW 20 32 11 17 1025.6 1025.6 -
06/01:00pm 13.5 - - - - WSW 19 30 10 16 1025.8 1025.8 -
06/12:30pm 12.8 - - - - WSW 9 26 5 14 1025.9 1025.9 -
06/12:00pm 13.0 - - - - W 15 30 8 16 1025.7 1025.7 -
06/11:30am 12.9 - - - - WSW 15 32 8 17 1026.3 1026.3 -
06/11:00am 12.8 - - - - W 11 24 6 13 1026.3 1026.3 -
06/10:30am 11.6 - - - - NW 17 22 9 12 1026.4 1026.4 -
06/10:00am 11.2 - - - - NW 11 17 6 9 1026.6 1026.6 -
06/09:30am 10.6 - - - - NW 13 19 7 10 1026.7 1026.7 -
06/09:00am 10.2 - - - - NW 11 15 6 8 1026.7 1026.7 -
06/08:30am 9.8 - - - - WNW 7 13 4 7 1026.6 1026.6 -
06/08:00am 9.9 - - - - WNW 9 13 5 7 1026.5 1026.5 -
06/07:30am 9.9 - - - - NW 11 15 6 8 1026.4 1026.4 -
06/07:00am 9.4 - - - - NW 11 15 6 8 1026.2 1026.2 -
06/06:30am 9.7 - - - - WNW 4 9 2 5 1025.8 1025.8 -
06/06:00am 9.6 - - - - WNW 6 11 3 6 1025.4 1025.4 -
06/05:30am 9.3 - - - - WNW 9 17 5 9 1025.3 1025.3 -
06/05:00am 8.8 - - - - WNW 7 13 4 7 1025.0 1025.0 -
06/04:30am 9.2 - - - - WNW 9 17 5 9 1024.9 1024.9 -
06/04:00am 9.3 - - - - WNW 7 17 4 9 1024.9 1024.9 -
06/03:30am 9.7 - - - - WNW 9 15 5 8 1025.0 1025.0 -
06/03:00am 9.6 - - - - WNW 11 17 6 9 1025.2 1025.2 -
06/02:30am 9.4 - - - - WNW 7 13 4 7 1025.3 1025.3 -
06/02:00am 9.6 - - - - WNW 7 13 4 7 1025.1 1025.1 -
06/01:30am 9.6 - - - - WNW 11 24 6 13 1025.0 1025.0 -
06/01:00am 10.1 - - - - WNW 11 17 6 9 1025.2 1025.2 -
06/12:30am 9.9 - - - - WNW 9 15 5 8 1025.3 1025.3 -
06/12:00am 9.5 - - - - NW 15 19 8 10 1025.3 1025.3 -
 
Date/Time
EST
Temp
°C
App
Temp
°C
Dew
Point
°C
Rel
Hum
%
Delta-T
°C
Wind Press
QNH
hPa
Press
MSL
hPa
Rain since
9am
mm
Dir  Spd
km/h
Gust
km/h
Spd
kts
Gust
kts
05/11:30pm 9.7 - - - - NW 13 17 7 9 1025.3 1025.3 -
05/11:00pm 9.9 - - - - WNW 9 17 5 9 1025.2 1025.2 -
05/10:30pm 10.1 - - - - W 6 13 3 7 1024.8 1024.8 -
05/10:00pm 9.8 - - - - NW 6 9 3 5 1024.7 1024.7 -
05/09:30pm 10.1 - - - - WNW 6 11 3 6 1024.5 1024.5 -
05/09:00pm 10.5 - - - - WNW 2 6 1 3 1024.3 1024.3 -
05/08:30pm 10.6 - - - - WNW 2 7 1 4 1024.1 1024.1 -
05/08:00pm 10.8 - - - - W 6 13 3 7 1024.0 1024.0 -
05/07:30pm 10.9 - - - - WNW 6 11 3 6 1023.7 1023.7 -
05/07:00pm 11.3 - - - - W 9 15 5 8 1023.6 1023.6 -
05/06:30pm 11.4 - - - - WNW 11 15 6 8 1023.2 1023.2 -
05/06:00pm 11.9 - - - - WNW 7 15 4 8 1022.7 1022.7 -
05/05:30pm 12.4 - - - - W 4 13 2 7 1022.2 1022.2 -
05/05:00pm 13.0 - - - - W 6 15 3 8 1021.9 1021.9 -
05/04:30pm 13.7 - - - - WSW 9 22 5 12 1021.9 1021.9 -
05/04:00pm 14.4 - - - - WSW 9 22 5 12 1021.6 1021.6 -
05/03:30pm 14.6 - - - - WSW 9 22 5 12 1021.4 1021.4 -
05/03:00pm 14.7 - - - - SW 15 35 8 19 1021.4 1021.4 -
05/02:30pm 14.9 - - - - WSW 11 24 6 13 1021.0 1021.0 -
05/02:00pm 14.8 - - - - W 9 20 5 11 1020.9 1020.9 -
05/01:30pm 14.6 - - - - WSW 17 35 9 19 1020.8 1020.8 -
05/01:00pm 14.5 - - - - WSW 17 32 9 17 1021.0 1021.0 -
05/12:30pm 14.6 - - - - WSW 15 28 8 15 1021.0 1021.0 -
05/12:00pm 14.4 - - - - WSW 11 30 6 16 1021.2 1021.2 -
05/11:30am 13.9 - - - - WSW 11 24 6 13 1021.7 1021.7 -
05/11:00am 13.5 - - - - WSW 9 22 5 12 1021.6 1021.6 -
05/10:30am 13.1 - - - - W 7 20 4 11 1021.7 1021.7 -
05/10:00am 12.6 - - - - W 9 20 5 11 1021.5 1021.5 -
05/09:30am 12.2 - - - - W 7 17 4 9 1021.5 1021.5 -
05/09:00am 11.9 - - - - WSW 2 11 1 6 1021.1 1021.1 -
05/08:30am 11.4 - - - - SSW 4 15 2 8 1020.9 1020.9 -
05/08:00am 11.0 - - - - SW 15 35 8 19 1019.9 1019.9 -
05/07:30am 11.1 - - - - SW 33 57 18 31 1019.3 1019.3 -
05/07:00am 11.2 - - - - SW 41 65 22 35 1018.7 1018.7 -
05/06:42am 11.2 - - - - SW 37 57 20 31 1018.6 1018.6 -
05/06:30am 11.1 - - - - SW 35 50 19 27 1018.7 1018.7 -
05/06:00am 11.1 - - - - SW 24 54 13 29 1018.8 1018.8 -
05/05:59am 11.1 - - - - SW 22 46 12 25 1018.8 1018.8 -
05/05:30am 10.8 - - - - WSW 9 24 5 13 1019.0 1019.0 -
05/05:00am 10.7 - - - - WSW 7 20 4 11 1018.9 1018.9 -
05/04:30am 10.9 - - - - W 7 24 4 13 1019.0 1019.0 -
05/04:00am 10.6 - - - - NW 2 11 1 6 1019.1 1019.1 -
05/03:30am 10.6 - - - - NW 4 9 2 5 1019.1 1019.1 -
05/03:00am 10.7 - - - - NW 2 7 1 4 1019.2 1019.2 -
05/02:30am 10.6 - - - - WNW 6 13 3 7 1019.3 1019.3 -
05/02:00am 10.6 - - - - WSW 2 9 1 5 1019.3 1019.3 -
05/01:30am 10.8 - - - - WSW 4 22 2 12 1019.4 1019.4 -
05/01:00am 10.9 - - - - WSW 7 19 4 10 1019.2 1019.2 -
05/12:30am 10.5 - - - - W 6 15 3 8 1019.2 1019.2 -
05/12:00am 10.9 - - - - WSW 13 24 7 13 1019.4 1019.4 -
 
Date/Time
EST
Temp
°C
App
Temp
°C
Dew
Point
°C
Rel
Hum
%
Delta-T
°C
Wind Press
QNH
hPa
Press
MSL
hPa
Rain since
9am
mm
Dir  Spd
km/h
Gust
km/h
Spd
kts
Gust
kts
04/11:30pm 10.8 - - - - W 7 17 4 9 1019.3 1019.3 -
04/11:00pm 10.7 - - - - WNW 7 15 4 8 1019.1 1019.1 -
04/10:30pm 10.9 - - - - NW 17 22 9 12 1019.2 1019.2 -
04/10:00pm 10.6 - - - - NW 15 20 8 11 1018.9 1018.9 -
04/09:30pm 10.4 - - - - WNW 13 19 7 10 1018.7 1018.7 -
04/09:00pm 10.5 - - - - WNW 15 24 8 13 1018.3 1018.3 -
04/08:30pm 10.6 - - - - WNW 13 20 7 11 1018.3 1018.3 -
04/08:00pm 11.1 - - - - WNW 13 20 7 11 1018.0 1018.0 -
04/07:30pm 11.1 - - - - WNW 11 22 6 12 1017.8 1017.8 -
04/07:00pm 11.4 - - - - WNW 11 20 6 11 1017.4 1017.4 -
04/06:30pm 11.4 - - - - WNW 13 20 7 11 1017.0 1017.0 -
04/06:00pm 11.5 - - - - WNW 13 22 7 12 1016.9 1016.9 -
04/05:30pm 12.0 - - - - WNW 11 20 6 11 1016.5 1016.5 -
04/05:00pm 12.3 - - - - WNW 13 24 7 13 1016.1 1016.1 -
04/04:30pm 12.6 - - - - WNW 11 24 6 13 1015.9 1015.9 -
04/04:00pm 12.9 - - - - W 11 22 6 12 1016.0 1016.0 -
04/03:30pm 13.3 - - - - W 9 22 5 12 1015.9 1015.9 -
04/03:00pm 13.4 - - - - WNW 13 30 7 16 1015.6 1015.6 -
04/02:30pm 13.1 - - - - W 11 32 6 17 1015.5 1015.5 -
04/02:00pm 13.5 - - - - W 20 39 11 21 1015.3 1015.3 -
04/01:30pm 13.6 - - - - W 11 28 6 15 1015.3 1015.3 -
04/01:00pm 13.5 - - - - W 13 30 7 16 1015.4 1015.4 -
04/12:30pm 13.3 - - - - W 17 33 9 18 1015.6 1015.6 -
04/12:00pm 13.1 - - - - W 15 28 8 15 1015.7 1015.7 -
04/11:30am 12.8 - - - - W 15 28 8 15 1016.1 1016.1 -
04/11:00am 12.7 - - - - W 13 26 7 14 1016.2 1016.2 -
04/10:30am 12.0 - - - - W 13 30 7 16 1016.3 1016.3 -
04/10:00am 11.0 - - - - WNW 9 20 5 11 1016.2 1016.2 -
04/09:30am 9.0 - - - - NNW 9 15 5 8 1016.2 1016.2 -
04/09:00am 7.7 - - - - WNW 2 7 1 4 1016.4 1016.4 -
04/08:30am 7.7 - - - - NW 4 9 2 5 1016.2 1016.2 -
04/08:00am 7.4 - - - - NW 6 11 3 6 1016.6 1016.6 -
04/07:30am 7.6 - - - - WNW 4 7 2 4 1016.5 1016.5 -
04/07:00am 7.1 - - - - W 4 13 2 7 1016.7 1016.7 -
04/06:30am 7.3 - - - - WNW 7 15 4 8 1017.0 1017.0 -
04/06:00am 7.8 - - - - W 9 19 5 10 1017.2 1017.2 -
04/05:30am 7.2 - - - - CALM 0 4 0 2 1017.2 1017.2 -
04/05:00am 7.4 - - - - CALM 0 2 0 1 1017.4 1017.4 -
04/04:30am 7.5 - - - - WSW 7 15 4 8 1017.6 1017.6 -
04/04:00am 7.6 - - - - WSW 6 13 3 7 1017.6 1017.6 -
04/03:30am 7.6 - - - - SW 17 26 9 14 1017.5 1017.5 -
04/03:00am 7.7 - - - - WSW 13 30 7 16 1017.3 1017.3 -
04/02:30am 7.3 - - - - W 6 13 3 7 1017.7 1017.7 -
04/02:00am 7.3 - - - - WNW 7 17 4 9 1017.6 1017.6 -
04/01:30am 6.8 - - - - WNW 7 15 4 8 1017.9 1017.9 -
04/01:00am 7.2 - - - - WNW 6 11 3 6 1017.6 1017.6 -
04/12:30am 7.3 - - - - WNW 6 13 3 7 1017.9 1017.9 -
04/12:00am 7.0 - - - - WNW 9 17 5 9 1018.1 1018.1 -
 
Date/Time
EST
Temp
°C
App
Temp
°C
Dew
Point
°C
Rel
Hum
%
Delta-T
°C
Wind Press
QNH
hPa
Press
MSL
hPa
Rain since
9am
mm
Dir  Spd
km/h
Gust
km/h
Spd
kts
Gust
kts
03/11:30pm 7.1 - - - - WNW 7 13 4 7 1017.9 1017.9 -
03/11:00pm 7.1 - - - - WNW 6 13 3 7 1017.9 1017.9 -
03/10:30pm 7.6 - - - - WNW 7 15 4 8 1017.8 1017.8 -

Other formats

Comma delimited format used in spreadsheet applications
http://www.bom.gov.au/fwo/IDT60801/IDT60801.95963.axf

JavaScript Object Notation format (JSON) in row-major order
http://www.bom.gov.au/fwo/IDT60801/IDT60801.95963.json

Data quality

Most of these data are generated automatically and are frequently updated. Quality checks on data are not normally performed. It is possible for incorrect values to appear. Refer to information at About Latest Weather Observations and please check the disclaimer before using these data.